sensor_id;sensor_type;location;lat;lon;timestamp;P1;durP1;ratioP1;P2;durP2;ratioP2
21999;SDS011;11164;48.818;2.322;2023-02-28T00:00:04;12.80;;;6.60;;
21999;SDS011;11164;48.818;2.322;2023-02-28T00:02:37;28.40;;;14.27;;
21999;SDS011;11164;48.818;2.322;2023-02-28T00:05:04;10.35;;;6.25;;
21999;SDS011;11164;48.818;2.322;2023-02-28T00:07:30;22.02;;;11.93;;
21999;SDS011;11164;48.818;2.322;2023-02-28T00:10:02;8.88;;;5.93;;
21999;SDS011;11164;48.818;2.322;2023-02-28T00:12:29;9.98;;;5.78;;
21999;SDS011;11164;48.818;2.322;2023-02-28T00:14:54;8.48;;;5.47;;
21999;SDS011;11164;48.818;2.322;2023-02-28T00:17:20;9.30;;;5.70;;
21999;SDS011;11164;48.818;2.322;2023-02-28T00:19:49;9.27;;;6.20;;
21999;SDS011;11164;48.818;2.322;2023-02-28T00:22:16;11.77;;;6.00;;
21999;SDS011;11164;48.818;2.322;2023-02-28T00:24:43;9.02;;;5.78;;
21999;SDS011;11164;48.818;2.322;2023-02-28T00:27:09;9.88;;;5.55;;
21999;SDS011;11164;48.818;2.322;2023-02-28T00:29:34;11.50;;;6.50;;
21999;SDS011;11164;48.818;2.322;2023-02-28T00:32:00;10.68;;;5.57;;
21999;SDS011;11164;48.818;2.322;2023-02-28T00:34:25;8.32;;;5.45;;
21999;SDS011;11164;48.818;2.322;2023-02-28T00:36:51;9.38;;;5.55;;
21999;SDS011;11164;48.818;2.322;2023-02-28T00:39:16;9.13;;;5.93;;
21999;SDS011;11164;48.818;2.322;2023-02-28T00:41:41;9.57;;;5.82;;
21999;SDS011;11164;48.818;2.322;2023-02-28T00:44:07;7.95;;;4.88;;
21999;SDS011;11164;48.818;2.322;2023-02-28T00:46:32;7.63;;;5.03;;
21999;SDS011;11164;48.818;2.322;2023-02-28T00:48:58;8.80;;;5.85;;
21999;SDS011;11164;48.818;2.322;2023-02-28T00:51:23;8.57;;;5.38;;
21999;SDS011;11164;48.818;2.322;2023-02-28T00:53:49;8.77;;;5.70;;
21999;SDS011;11164;48.818;2.322;2023-02-28T00:56:14;8.52;;;5.38;;
21999;SDS011;11164;48.818;2.322;2023-02-28T00:58:39;9.45;;;5.85;;
21999;SDS011;11164;48.818;2.322;2023-02-28T01:01:05;8.88;;;6.00;;
21999;SDS011;11164;48.818;2.322;2023-02-28T01:03:31;8.35;;;5.43;;
21999;SDS011;11164;48.818;2.322;2023-02-28T01:05:57;9.77;;;5.57;;
21999;SDS011;11164;48.818;2.322;2023-02-28T01:08:23;9.32;;;5.53;;
21999;SDS011;11164;48.818;2.322;2023-02-28T01:10:48;9.77;;;5.60;;
21999;SDS011;11164;48.818;2.322;2023-02-28T01:13:14;10.57;;;5.90;;
21999;SDS011;11164;48.818;2.322;2023-02-28T01:15:40;9.32;;;5.60;;
21999;SDS011;11164;48.818;2.322;2023-02-28T01:18:08;8.68;;;4.95;;
21999;SDS011;11164;48.818;2.322;2023-02-28T01:20:35;8.38;;;5.20;;
21999;SDS011;11164;48.818;2.322;2023-02-28T01:23:03;9.00;;;5.50;;
21999;SDS011;11164;48.818;2.322;2023-02-28T01:25:29;8.77;;;5.28;;
21999;SDS011;11164;48.818;2.322;2023-02-28T01:27:54;9.43;;;5.35;;
21999;SDS011;11164;48.818;2.322;2023-02-28T01:30:20;10.30;;;5.65;;
21999;SDS011;11164;48.818;2.322;2023-02-28T01:32:45;7.35;;;4.32;;
21999;SDS011;11164;48.818;2.322;2023-02-28T01:35:10;7.35;;;4.90;;
21999;SDS011;11164;48.818;2.322;2023-02-28T01:37:36;9.55;;;4.32;;
21999;SDS011;11164;48.818;2.322;2023-02-28T01:40:01;11.05;;;5.50;;
21999;SDS011;11164;48.818;2.322;2023-02-28T01:42:27;9.27;;;4.75;;
21999;SDS011;11164;48.818;2.322;2023-02-28T01:47:50;10.55;;;5.45;;
21999;SDS011;11164;48.818;2.322;2023-02-28T01:50:20;7.95;;;4.97;;
21999;SDS011;11164;48.818;2.322;2023-02-28T01:52:48;8.27;;;4.50;;
21999;SDS011;11164;48.818;2.322;2023-02-28T01:55:16;8.50;;;4.60;;
21999;SDS011;11164;48.818;2.322;2023-02-28T01:57:48;9.85;;;5.00;;
21999;SDS011;11164;48.818;2.322;2023-02-28T02:00:18;8.32;;;5.38;;
21999;SDS011;11164;48.818;2.322;2023-02-28T02:02:47;8.80;;;4.57;;
21999;SDS011;11164;48.818;2.322;2023-02-28T02:05:25;8.27;;;5.05;;
21999;SDS011;11164;48.818;2.322;2023-02-28T02:07:56;8.27;;;4.65;;
21999;SDS011;11164;48.818;2.322;2023-02-28T02:10:31;11.00;;;5.18;;
21999;SDS011;11164;48.818;2.322;2023-02-28T02:13:02;8.15;;;4.93;;
21999;SDS011;11164;48.818;2.322;2023-02-28T02:15:41;9.38;;;4.53;;
21999;SDS011;11164;48.818;2.322;2023-02-28T02:20:50;7.85;;;4.78;;
21999;SDS011;11164;48.818;2.322;2023-02-28T02:23:38;8.18;;;4.70;;
21999;SDS011;11164;48.818;2.322;2023-02-28T02:35:04;7.63;;;4.88;;
21999;SDS011;11164;48.818;2.322;2023-02-28T02:40:19;7.47;;;4.55;;
21999;SDS011;11164;48.818;2.322;2023-02-28T02:48:05;10.65;;;4.78;;
21999;SDS011;11164;48.818;2.322;2023-02-28T02:50:38;7.35;;;4.25;;
21999;SDS011;11164;48.818;2.322;2023-02-28T02:53:08;9.85;;;4.70;;
21999;SDS011;11164;48.818;2.322;2023-02-28T02:55:37;8.75;;;5.05;;
21999;SDS011;11164;48.818;2.322;2023-02-28T02:58:08;7.05;;;4.13;;
21999;SDS011;11164;48.818;2.322;2023-02-28T03:00:41;8.15;;;4.25;;
21999;SDS011;11164;48.818;2.322;2023-02-28T03:03:11;8.25;;;4.43;;
21999;SDS011;11164;48.818;2.322;2023-02-28T03:05:42;9.00;;;4.75;;
21999;SDS011;11164;48.818;2.322;2023-02-28T03:08:13;9.07;;;5.05;;
21999;SDS011;11164;48.818;2.322;2023-02-28T03:10:43;9.10;;;3.95;;
21999;SDS011;11164;48.818;2.322;2023-02-28T03:15:46;6.35;;;4.05;;
21999;SDS011;11164;48.818;2.322;2023-02-28T03:18:51;5.55;;;3.60;;
21999;SDS011;11164;48.818;2.322;2023-02-28T03:21:34;7.82;;;4.35;;
21999;SDS011;11164;48.818;2.322;2023-02-28T03:24:07;8.13;;;3.88;;
21999;SDS011;11164;48.818;2.322;2023-02-28T03:26:36;8.27;;;4.07;;
21999;SDS011;11164;48.818;2.322;2023-02-28T03:31:57;6.18;;;4.00;;
21999;SDS011;11164;48.818;2.322;2023-02-28T03:34:35;6.95;;;3.97;;
21999;SDS011;11164;48.818;2.322;2023-02-28T03:37:11;6.55;;;4.00;;
21999;SDS011;11164;48.818;2.322;2023-02-28T03:39:51;7.22;;;3.58;;
21999;SDS011;11164;48.818;2.322;2023-02-28T03:42:23;8.05;;;3.90;;
21999;SDS011;11164;48.818;2.322;2023-02-28T03:45:26;5.88;;;3.50;;
21999;SDS011;11164;48.818;2.322;2023-02-28T03:50:21;8.20;;;4.47;;
21999;SDS011;11164;48.818;2.322;2023-02-28T03:52:50;9.18;;;4.30;;
21999;SDS011;11164;48.818;2.322;2023-02-28T03:55:26;5.88;;;3.50;;
21999;SDS011;11164;48.818;2.322;2023-02-28T04:00:31;7.38;;;3.75;;
21999;SDS011;11164;48.818;2.322;2023-02-28T04:03:00;8.05;;;3.75;;
21999;SDS011;11164;48.818;2.322;2023-02-28T04:05:26;6.30;;;4.15;;
21999;SDS011;11164;48.818;2.322;2023-02-28T04:07:52;8.82;;;4.00;;
21999;SDS011;11164;48.818;2.322;2023-02-28T04:10:19;6.55;;;3.78;;
21999;SDS011;11164;48.818;2.322;2023-02-28T04:12:44;6.45;;;3.85;;
21999;SDS011;11164;48.818;2.322;2023-02-28T04:15:10;7.35;;;4.32;;
21999;SDS011;11164;48.818;2.322;2023-02-28T04:17:36;7.03;;;3.65;;
21999;SDS011;11164;48.818;2.322;2023-02-28T04:20:02;7.72;;;3.80;;
21999;SDS011;11164;48.818;2.322;2023-02-28T04:22:34;7.43;;;3.97;;
21999;SDS011;11164;48.818;2.322;2023-02-28T04:25:00;6.47;;;3.83;;
21999;SDS011;11164;48.818;2.322;2023-02-28T04:27:25;7.10;;;3.83;;
21999;SDS011;11164;48.818;2.322;2023-02-28T04:29:50;6.70;;;3.45;;
21999;SDS011;11164;48.818;2.322;2023-02-28T04:32:16;7.03;;;3.60;;
21999;SDS011;11164;48.818;2.322;2023-02-28T04:34:41;7.80;;;3.80;;
21999;SDS011;11164;48.818;2.322;2023-02-28T04:37:06;7.03;;;4.00;;
21999;SDS011;11164;48.818;2.322;2023-02-28T04:39:34;7.38;;;3.95;;
21999;SDS011;11164;48.818;2.322;2023-02-28T04:42:00;7.65;;;4.05;;
21999;SDS011;11164;48.818;2.322;2023-02-28T04:44:26;7.53;;;3.72;;
21999;SDS011;11164;48.818;2.322;2023-02-28T04:46:51;6.38;;;3.80;;
21999;SDS011;11164;48.818;2.322;2023-02-28T04:49:17;6.35;;;2.88;;
21999;SDS011;11164;48.818;2.322;2023-02-28T04:51:42;7.15;;;3.92;;
21999;SDS011;11164;48.818;2.322;2023-02-28T04:54:08;7.03;;;4.07;;
21999;SDS011;11164;48.818;2.322;2023-02-28T04:56:33;8.27;;;3.90;;
21999;SDS011;11164;48.818;2.322;2023-02-28T04:58:59;9.43;;;4.35;;
21999;SDS011;11164;48.818;2.322;2023-02-28T05:01:30;7.47;;;4.20;;
21999;SDS011;11164;48.818;2.322;2023-02-28T05:03:58;7.85;;;4.10;;
21999;SDS011;11164;48.818;2.322;2023-02-28T05:06:26;6.80;;;3.80;;
21999;SDS011;11164;48.818;2.322;2023-02-28T05:08:53;7.05;;;3.80;;
21999;SDS011;11164;48.818;2.322;2023-02-28T05:11:20;7.50;;;4.20;;
21999;SDS011;11164;48.818;2.322;2023-02-28T05:13:47;8.02;;;4.03;;
21999;SDS011;11164;48.818;2.322;2023-02-28T05:16:14;9.20;;;3.90;;
21999;SDS011;11164;48.818;2.322;2023-02-28T05:18:40;6.40;;;4.03;;
21999;SDS011;11164;48.818;2.322;2023-02-28T05:21:05;8.88;;;4.22;;
21999;SDS011;11164;48.818;2.322;2023-02-28T05:23:31;8.43;;;4.05;;
21999;SDS011;11164;48.818;2.322;2023-02-28T05:25:57;6.82;;;4.43;;
21999;SDS011;11164;48.818;2.322;2023-02-28T05:28:22;6.47;;;3.90;;
21999;SDS011;11164;48.818;2.322;2023-02-28T05:30:48;8.70;;;4.10;;
21999;SDS011;11164;48.818;2.322;2023-02-28T05:33:13;7.82;;;4.68;;
21999;SDS011;11164;48.818;2.322;2023-02-28T05:35:40;7.53;;;4.05;;
21999;SDS011;11164;48.818;2.322;2023-02-28T05:38:06;7.13;;;3.90;;
21999;SDS011;11164;48.818;2.322;2023-02-28T05:40:32;6.50;;;3.65;;
21999;SDS011;11164;48.818;2.322;2023-02-28T05:42:57;7.90;;;5.05;;
21999;SDS011;11164;48.818;2.322;2023-02-28T05:45:22;12.05;;;4.43;;
21999;SDS011;11164;48.818;2.322;2023-02-28T05:47:48;10.25;;;4.90;;
21999;SDS011;11164;48.818;2.322;2023-02-28T05:50:13;8.38;;;4.55;;
21999;SDS011;11164;48.818;2.322;2023-02-28T05:52:38;9.32;;;5.20;;
21999;SDS011;11164;48.818;2.322;2023-02-28T05:55:04;10.60;;;4.70;;
21999;SDS011;11164;48.818;2.322;2023-02-28T05:57:29;8.27;;;4.80;;
21999;SDS011;11164;48.818;2.322;2023-02-28T05:59:55;9.80;;;5.28;;
21999;SDS011;11164;48.818;2.322;2023-02-28T06:02:20;8.13;;;5.00;;
21999;SDS011;11164;48.818;2.322;2023-02-28T06:04:46;10.15;;;4.65;;
21999;SDS011;11164;48.818;2.322;2023-02-28T06:07:11;9.48;;;5.13;;
21999;SDS011;11164;48.818;2.322;2023-02-28T06:09:37;9.80;;;5.03;;
21999;SDS011;11164;48.818;2.322;2023-02-28T06:12:04;10.43;;;5.45;;
21999;SDS011;11164;48.818;2.322;2023-02-28T06:14:31;11.18;;;5.65;;
21999;SDS011;11164;48.818;2.322;2023-02-28T06:16:57;10.07;;;6.47;;
21999;SDS011;11164;48.818;2.322;2023-02-28T06:19:23;12.38;;;6.20;;
21999;SDS011;11164;48.818;2.322;2023-02-28T06:21:50;10.23;;;6.68;;
21999;SDS011;11164;48.818;2.322;2023-02-28T06:24:17;32.28;;;8.90;;
21999;SDS011;11164;48.818;2.322;2023-02-28T06:26:46;11.88;;;7.32;;
21999;SDS011;11164;48.818;2.322;2023-02-28T06:29:12;12.80;;;6.95;;
21999;SDS011;11164;48.818;2.322;2023-02-28T06:31:42;11.57;;;6.05;;
21999;SDS011;11164;48.818;2.322;2023-02-28T06:34:09;12.00;;;6.65;;
21999;SDS011;11164;48.818;2.322;2023-02-28T06:36:36;13.55;;;7.57;;
21999;SDS011;11164;48.818;2.322;2023-02-28T06:39:03;13.95;;;7.70;;
21999;SDS011;11164;48.818;2.322;2023-02-28T06:41:28;13.48;;;8.02;;
21999;SDS011;11164;48.818;2.322;2023-02-28T06:43:54;14.95;;;8.30;;
21999;SDS011;11164;48.818;2.322;2023-02-28T06:46:19;15.43;;;8.20;;
21999;SDS011;11164;48.818;2.322;2023-02-28T06:48:45;16.02;;;8.63;;
21999;SDS011;11164;48.818;2.322;2023-02-28T06:51:14;10.52;;;6.55;;
21999;SDS011;11164;48.818;2.322;2023-02-28T06:53:42;13.48;;;8.38;;
21999;SDS011;11164;48.818;2.322;2023-02-28T06:56:09;13.63;;;8.20;;
21999;SDS011;11164;48.818;2.322;2023-02-28T06:58:36;14.98;;;8.40;;
21999;SDS011;11164;48.818;2.322;2023-02-28T07:01:03;16.58;;;8.73;;
21999;SDS011;11164;48.818;2.322;2023-02-28T07:03:29;15.68;;;8.55;;
21999;SDS011;11164;48.818;2.322;2023-02-28T07:05:54;14.32;;;8.77;;
21999;SDS011;11164;48.818;2.322;2023-02-28T07:08:21;16.48;;;9.65;;
21999;SDS011;11164;48.818;2.322;2023-02-28T07:10:47;13.90;;;7.97;;
21999;SDS011;11164;48.818;2.322;2023-02-28T07:13:16;16.20;;;9.23;;
21999;SDS011;11164;48.818;2.322;2023-02-28T07:15:42;12.95;;;7.50;;
21999;SDS011;11164;48.818;2.322;2023-02-28T07:18:07;13.90;;;9.40;;
21999;SDS011;11164;48.818;2.322;2023-02-28T07:20:33;17.83;;;10.20;;
21999;SDS011;11164;48.818;2.322;2023-02-28T07:22:58;20.33;;;11.38;;
21999;SDS011;11164;48.818;2.322;2023-02-28T07:25:24;16.73;;;9.45;;
21999;SDS011;11164;48.818;2.322;2023-02-28T07:27:52;15.32;;;9.10;;
21999;SDS011;11164;48.818;2.322;2023-02-28T07:30:18;20.83;;;11.00;;
21999;SDS011;11164;48.818;2.322;2023-02-28T07:32:44;15.45;;;8.70;;
21999;SDS011;11164;48.818;2.322;2023-02-28T07:35:10;16.27;;;9.57;;
21999;SDS011;11164;48.818;2.322;2023-02-28T07:37:36;16.48;;;10.20;;
21999;SDS011;11164;48.818;2.322;2023-02-28T07:40:05;17.10;;;10.50;;
21999;SDS011;11164;48.818;2.322;2023-02-28T07:42:33;15.93;;;9.45;;
21999;SDS011;11164;48.818;2.322;2023-02-28T07:44:59;18.05;;;10.98;;
21999;SDS011;11164;48.818;2.322;2023-02-28T07:47:25;17.60;;;9.82;;
21999;SDS011;11164;48.818;2.322;2023-02-28T07:49:50;19.08;;;11.07;;
21999;SDS011;11164;48.818;2.322;2023-02-28T07:52:15;18.60;;;10.52;;
21999;SDS011;11164;48.818;2.322;2023-02-28T07:54:41;20.02;;;10.02;;
21999;SDS011;11164;48.818;2.322;2023-02-28T07:57:07;16.92;;;9.85;;
21999;SDS011;11164;48.818;2.322;2023-02-28T07:59:33;16.27;;;9.77;;
21999;SDS011;11164;48.818;2.322;2023-02-28T08:01:58;18.05;;;10.60;;
21999;SDS011;11164;48.818;2.322;2023-02-28T08:04:24;15.63;;;9.23;;
21999;SDS011;11164;48.818;2.322;2023-02-28T08:06:49;14.82;;;9.77;;
21999;SDS011;11164;48.818;2.322;2023-02-28T08:09:16;19.15;;;10.35;;
21999;SDS011;11164;48.818;2.322;2023-02-28T08:11:42;14.95;;;9.10;;
21999;SDS011;11164;48.818;2.322;2023-02-28T08:14:07;18.02;;;10.35;;
21999;SDS011;11164;48.818;2.322;2023-02-28T08:16:33;11.93;;;7.55;;
21999;SDS011;11164;48.818;2.322;2023-02-28T08:18:58;15.75;;;9.68;;
21999;SDS011;11164;48.818;2.322;2023-02-28T08:21:24;15.88;;;9.20;;
21999;SDS011;11164;48.818;2.322;2023-02-28T08:23:50;16.13;;;9.30;;
21999;SDS011;11164;48.818;2.322;2023-02-28T08:26:16;14.70;;;8.95;;
21999;SDS011;11164;48.818;2.322;2023-02-28T08:28:43;19.05;;;10.57;;
21999;SDS011;11164;48.818;2.322;2023-02-28T08:31:10;13.90;;;9.00;;
21999;SDS011;11164;48.818;2.322;2023-02-28T08:33:38;12.52;;;7.43;;
21999;SDS011;11164;48.818;2.322;2023-02-28T08:36:04;16.77;;;9.70;;
21999;SDS011;11164;48.818;2.322;2023-02-28T08:38:30;17.23;;;9.55;;
21999;SDS011;11164;48.818;2.322;2023-02-28T08:41:00;14.30;;;9.10;;
21999;SDS011;11164;48.818;2.322;2023-02-28T08:43:27;13.80;;;7.95;;
21999;SDS011;11164;48.818;2.322;2023-02-28T08:45:53;15.90;;;10.30;;
21999;SDS011;11164;48.818;2.322;2023-02-28T08:48:21;16.52;;;10.30;;
21999;SDS011;11164;48.818;2.322;2023-02-28T08:51:04;17.75;;;9.18;;
21999;SDS011;11164;48.818;2.322;2023-02-28T08:53:32;16.63;;;10.32;;
21999;SDS011;11164;48.818;2.322;2023-02-28T08:56:02;17.77;;;9.23;;
21999;SDS011;11164;48.818;2.322;2023-02-28T08:58:29;14.98;;;8.98;;
21999;SDS011;11164;48.818;2.322;2023-02-28T09:00:54;17.13;;;8.73;;
21999;SDS011;11164;48.818;2.322;2023-02-28T09:03:20;17.33;;;9.23;;
21999;SDS011;11164;48.818;2.322;2023-02-28T09:05:53;14.60;;;8.90;;
21999;SDS011;11164;48.818;2.322;2023-02-28T09:08:23;28.52;;;10.05;;
21999;SDS011;11164;48.818;2.322;2023-02-28T09:10:49;16.75;;;8.98;;
21999;SDS011;11164;48.818;2.322;2023-02-28T09:13:15;16.48;;;8.77;;
21999;SDS011;11164;48.818;2.322;2023-02-28T09:15:41;16.33;;;9.13;;
21999;SDS011;11164;48.818;2.322;2023-02-28T09:18:06;14.27;;;8.55;;
21999;SDS011;11164;48.818;2.322;2023-02-28T09:20:32;14.10;;;8.55;;
21999;SDS011;11164;48.818;2.322;2023-02-28T09:22:57;14.30;;;8.93;;
21999;SDS011;11164;48.818;2.322;2023-02-28T09:25:22;14.65;;;8.40;;
21999;SDS011;11164;48.818;2.322;2023-02-28T09:27:48;16.42;;;8.45;;
21999;SDS011;11164;48.818;2.322;2023-02-28T09:30:13;13.50;;;8.05;;
21999;SDS011;11164;48.818;2.322;2023-02-28T09:32:39;15.35;;;8.73;;
21999;SDS011;11164;48.818;2.322;2023-02-28T09:35:05;16.17;;;8.98;;
21999;SDS011;11164;48.818;2.322;2023-02-28T09:37:31;14.38;;;9.10;;
21999;SDS011;11164;48.818;2.322;2023-02-28T09:39:57;13.05;;;8.18;;
21999;SDS011;11164;48.818;2.322;2023-02-28T09:42:29;13.98;;;8.15;;
21999;SDS011;11164;48.818;2.322;2023-02-28T09:44:57;15.25;;;8.60;;
21999;SDS011;11164;48.818;2.322;2023-02-28T09:50:50;14.70;;;7.22;;
21999;SDS011;11164;48.818;2.322;2023-02-28T09:52:57;14.00;;;8.07;;
21999;SDS011;11164;48.818;2.322;2023-02-28T09:55:30;13.50;;;8.43;;
21999;SDS011;11164;48.818;2.322;2023-02-28T09:58:01;11.85;;;7.72;;
21999;SDS011;11164;48.818;2.322;2023-02-28T10:00:30;14.95;;;9.00;;
21999;SDS011;11164;48.818;2.322;2023-02-28T10:08:36;17.63;;;8.57;;
21999;SDS011;11164;48.818;2.322;2023-02-28T10:11:07;16.48;;;8.95;;
21999;SDS011;11164;48.818;2.322;2023-02-28T10:13:50;11.77;;;8.05;;
21999;SDS011;11164;48.818;2.322;2023-02-28T10:16:36;16.35;;;8.50;;
21999;SDS011;11164;48.818;2.322;2023-02-28T10:19:11;12.63;;;8.23;;
21999;SDS011;11164;48.818;2.322;2023-02-28T10:21:59;11.43;;;7.15;;
21999;SDS011;11164;48.818;2.322;2023-02-28T10:24:30;12.20;;;6.60;;
21999;SDS011;11164;48.818;2.322;2023-02-28T10:27:00;12.32;;;6.18;;
21999;SDS011;11164;48.818;2.322;2023-02-28T10:29:36;9.90;;;7.22;;
21999;SDS011;11164;48.818;2.322;2023-02-28T10:32:05;13.70;;;7.88;;
21999;SDS011;11164;48.818;2.322;2023-02-28T10:34:30;11.48;;;6.75;;
21999;SDS011;11164;48.818;2.322;2023-02-28T10:36:56;9.27;;;6.35;;
21999;SDS011;11164;48.818;2.322;2023-02-28T10:39:36;12.27;;;6.80;;
21999;SDS011;11164;48.818;2.322;2023-02-28T10:42:44;11.18;;;6.32;;
21999;SDS011;11164;48.818;2.322;2023-02-28T10:47:40;9.10;;;5.25;;
21999;SDS011;11164;48.818;2.322;2023-02-28T10:53:24;9.48;;;5.75;;
21999;SDS011;11164;48.818;2.322;2023-02-28T10:56:30;9.48;;;5.45;;
21999;SDS011;11164;48.818;2.322;2023-02-28T11:03:57;7.70;;;4.55;;
21999;SDS011;11164;48.818;2.322;2023-02-28T11:06:26;7.55;;;4.28;;
21999;SDS011;11164;48.818;2.322;2023-02-28T11:08:57;7.25;;;4.47;;
21999;SDS011;11164;48.818;2.322;2023-02-28T11:11:25;8.07;;;4.60;;
21999;SDS011;11164;48.818;2.322;2023-02-28T11:13:54;6.97;;;4.22;;
21999;SDS011;11164;48.818;2.322;2023-02-28T11:16:22;6.72;;;3.97;;
21999;SDS011;11164;48.818;2.322;2023-02-28T11:18:58;5.78;;;3.85;;
21999;SDS011;11164;48.818;2.322;2023-02-28T11:21:26;7.32;;;4.07;;
21999;SDS011;11164;48.818;2.322;2023-02-28T11:23:57;7.20;;;4.38;;
21999;SDS011;11164;48.818;2.322;2023-02-28T11:26:42;8.48;;;5.10;;
21999;SDS011;11164;48.818;2.322;2023-02-28T11:29:20;6.07;;;3.78;;
21999;SDS011;11164;48.818;2.322;2023-02-28T11:32:26;7.68;;;4.30;;
21999;SDS011;11164;48.818;2.322;2023-02-28T11:34:47;7.50;;;4.32;;
21999;SDS011;11164;48.818;2.322;2023-02-28T11:37:25;6.97;;;4.53;;
21999;SDS011;11164;48.818;2.322;2023-02-28T11:39:52;7.43;;;4.70;;
21999;SDS011;11164;48.818;2.322;2023-02-28T11:47:53;8.00;;;4.22;;
21999;SDS011;11164;48.818;2.322;2023-02-28T11:56:32;7.70;;;4.07;;
21999;SDS011;11164;48.818;2.322;2023-02-28T12:02:23;7.70;;;4.68;;
21999;SDS011;11164;48.818;2.322;2023-02-28T12:10:32;6.72;;;4.35;;
21999;SDS011;11164;48.818;2.322;2023-02-28T12:13:18;7.00;;;4.50;;
21999;SDS011;11164;48.818;2.322;2023-02-28T12:21:19;8.20;;;4.97;;
21999;SDS011;11164;48.818;2.322;2023-02-28T12:26:40;7.78;;;4.43;;
21999;SDS011;11164;48.818;2.322;2023-02-28T12:29:16;8.18;;;4.70;;
21999;SDS011;11164;48.818;2.322;2023-02-28T12:31:49;10.20;;;5.25;;
21999;SDS011;11164;48.818;2.322;2023-02-28T12:34:31;8.48;;;5.10;;
21999;SDS011;11164;48.818;2.322;2023-02-28T12:37:01;6.75;;;4.25;;
21999;SDS011;11164;48.818;2.322;2023-02-28T12:39:34;6.68;;;3.97;;
21999;SDS011;11164;48.818;2.322;2023-02-28T12:42:04;7.68;;;4.57;;
21999;SDS011;11164;48.818;2.322;2023-02-28T12:47:05;6.65;;;4.28;;
21999;SDS011;11164;48.818;2.322;2023-02-28T12:49:41;7.55;;;4.55;;
21999;SDS011;11164;48.818;2.322;2023-02-28T12:52:14;7.22;;;4.25;;
21999;SDS011;11164;48.818;2.322;2023-02-28T12:54:52;7.55;;;4.60;;
21999;SDS011;11164;48.818;2.322;2023-02-28T12:57:32;6.63;;;4.88;;
21999;SDS011;11164;48.818;2.322;2023-02-28T13:00:20;7.78;;;4.20;;
21999;SDS011;11164;48.818;2.322;2023-02-28T13:08:56;9.23;;;5.07;;
21999;SDS011;11164;48.818;2.322;2023-02-28T13:11:24;6.38;;;3.63;;
21999;SDS011;11164;48.818;2.322;2023-02-28T13:13:59;6.47;;;4.13;;
21999;SDS011;11164;48.818;2.322;2023-02-28T13:18:53;5.97;;;3.80;;
21999;SDS011;11164;48.818;2.322;2023-02-28T13:21:41;8.40;;;5.05;;
21999;SDS011;11164;48.818;2.322;2023-02-28T13:24:08;7.22;;;4.38;;
21999;SDS011;11164;48.818;2.322;2023-02-28T13:29:47;7.97;;;4.10;;
21999;SDS011;11164;48.818;2.322;2023-02-28T13:50:21;9.35;;;4.97;;
21999;SDS011;11164;48.818;2.322;2023-02-28T14:07:04;6.43;;;4.00;;
21999;SDS011;11164;48.818;2.322;2023-02-28T14:09:40;4.00;;;2.97;;
21999;SDS011;11164;48.818;2.322;2023-02-28T14:20:54;6.25;;;3.70;;
21999;SDS011;11164;48.818;2.322;2023-02-28T14:26:14;6.05;;;3.75;;
21999;SDS011;11164;48.818;2.322;2023-02-28T14:28:46;5.63;;;3.75;;
21999;SDS011;11164;48.818;2.322;2023-02-28T14:36:42;5.78;;;3.42;;
21999;SDS011;11164;48.818;2.322;2023-02-28T14:39:20;6.00;;;3.80;;
21999;SDS011;11164;48.818;2.322;2023-02-28T14:41:48;8.27;;;3.85;;
21999;SDS011;11164;48.818;2.322;2023-02-28T14:46:54;5.40;;;3.50;;
21999;SDS011;11164;48.818;2.322;2023-02-28T14:49:26;5.57;;;3.42;;
21999;SDS011;11164;48.818;2.322;2023-02-28T14:52:05;8.70;;;4.72;;
21999;SDS011;11164;48.818;2.322;2023-02-28T14:54:38;5.85;;;3.53;;
21999;SDS011;11164;48.818;2.322;2023-02-28T14:57:04;5.97;;;3.85;;
21999;SDS011;11164;48.818;2.322;2023-02-28T14:59:31;5.57;;;3.80;;
21999;SDS011;11164;48.818;2.322;2023-02-28T15:04:51;6.95;;;3.83;;
21999;SDS011;11164;48.818;2.322;2023-02-28T15:07:24;7.65;;;3.83;;
21999;SDS011;11164;48.818;2.322;2023-02-28T15:12:40;6.30;;;3.88;;
21999;SDS011;11164;48.818;2.322;2023-02-28T15:15:14;5.07;;;3.58;;
21999;SDS011;11164;48.818;2.322;2023-02-28T15:17:41;4.85;;;3.47;;
21999;SDS011;11164;48.818;2.322;2023-02-28T15:20:11;5.25;;;3.58;;
21999;SDS011;11164;48.818;2.322;2023-02-28T15:22:39;6.35;;;3.55;;
21999;SDS011;11164;48.818;2.322;2023-02-28T15:25:06;6.55;;;3.92;;
21999;SDS011;11164;48.818;2.322;2023-02-28T15:27:44;6.20;;;3.92;;
21999;SDS011;11164;48.818;2.322;2023-02-28T15:30:15;5.72;;;3.40;;
21999;SDS011;11164;48.818;2.322;2023-02-28T15:32:43;5.13;;;3.70;;
21999;SDS011;11164;48.818;2.322;2023-02-28T15:38:02;5.63;;;3.58;;
21999;SDS011;11164;48.818;2.322;2023-02-28T15:40:42;7.40;;;3.80;;
21999;SDS011;11164;48.818;2.322;2023-02-28T15:43:14;5.95;;;3.60;;
21999;SDS011;11164;48.818;2.322;2023-02-28T15:45:41;5.85;;;4.00;;
21999;SDS011;11164;48.818;2.322;2023-02-28T15:48:19;6.57;;;4.00;;
21999;SDS011;11164;48.818;2.322;2023-02-28T15:50:55;6.68;;;3.90;;
21999;SDS011;11164;48.818;2.322;2023-02-28T15:53:29;5.53;;;3.97;;
21999;SDS011;11164;48.818;2.322;2023-02-28T15:55:58;7.15;;;4.15;;
21999;SDS011;11164;48.818;2.322;2023-02-28T15:58:26;9.43;;;3.90;;
21999;SDS011;11164;48.818;2.322;2023-02-28T16:01:06;5.82;;;3.70;;
21999;SDS011;11164;48.818;2.322;2023-02-28T16:03:46;8.05;;;3.92;;
21999;SDS011;11164;48.818;2.322;2023-02-28T16:08:41;5.75;;;3.97;;
21999;SDS011;11164;48.818;2.322;2023-02-28T16:11:08;8.20;;;3.88;;
21999;SDS011;11164;48.818;2.322;2023-02-28T16:13:35;6.25;;;3.75;;
21999;SDS011;11164;48.818;2.322;2023-02-28T16:16:00;5.53;;;3.70;;
21999;SDS011;11164;48.818;2.322;2023-02-28T16:18:26;7.57;;;3.88;;
21999;SDS011;11164;48.818;2.322;2023-02-28T16:20:52;5.93;;;3.70;;
21999;SDS011;11164;48.818;2.322;2023-02-28T16:23:17;5.63;;;3.70;;
21999;SDS011;11164;48.818;2.322;2023-02-28T16:25:43;8.25;;;4.15;;
21999;SDS011;11164;48.818;2.322;2023-02-28T16:28:24;6.60;;;3.60;;
21999;SDS011;11164;48.818;2.322;2023-02-28T16:30:55;5.72;;;3.38;;
21999;SDS011;11164;48.818;2.322;2023-02-28T16:33:21;6.40;;;3.67;;
21999;SDS011;11164;48.818;2.322;2023-02-28T16:35:46;5.78;;;3.58;;
21999;SDS011;11164;48.818;2.322;2023-02-28T16:38:11;6.63;;;3.45;;
21999;SDS011;11164;48.818;2.322;2023-02-28T16:40:37;5.88;;;3.65;;
21999;SDS011;11164;48.818;2.322;2023-02-28T16:43:07;6.60;;;3.97;;
21999;SDS011;11164;48.818;2.322;2023-02-28T16:45:39;5.93;;;3.72;;
21999;SDS011;11164;48.818;2.322;2023-02-28T16:48:05;6.63;;;3.78;;
21999;SDS011;11164;48.818;2.322;2023-02-28T16:50:30;6.97;;;4.30;;
21999;SDS011;11164;48.818;2.322;2023-02-28T16:52:57;7.78;;;3.90;;
21999;SDS011;11164;48.818;2.322;2023-02-28T16:55:23;5.57;;;3.83;;
21999;SDS011;11164;48.818;2.322;2023-02-28T16:57:53;5.45;;;3.45;;
21999;SDS011;11164;48.818;2.322;2023-02-28T17:00:21;6.57;;;3.78;;
21999;SDS011;11164;48.818;2.322;2023-02-28T17:02:48;6.55;;;3.85;;
21999;SDS011;11164;48.818;2.322;2023-02-28T17:05:13;6.72;;;4.25;;
21999;SDS011;11164;48.818;2.322;2023-02-28T17:07:40;6.35;;;4.15;;
21999;SDS011;11164;48.818;2.322;2023-02-28T17:10:28;6.05;;;3.53;;
21999;SDS011;11164;48.818;2.322;2023-02-28T17:12:53;6.90;;;3.97;;
21999;SDS011;11164;48.818;2.322;2023-02-28T17:15:19;6.63;;;3.45;;
21999;SDS011;11164;48.818;2.322;2023-02-28T17:17:45;7.20;;;4.00;;
21999;SDS011;11164;48.818;2.322;2023-02-28T17:20:16;6.85;;;4.10;;
21999;SDS011;11164;48.818;2.322;2023-02-28T17:22:43;7.32;;;3.78;;
21999;SDS011;11164;48.818;2.322;2023-02-28T17:25:09;5.90;;;3.75;;
21999;SDS011;11164;48.818;2.322;2023-02-28T17:27:35;7.88;;;4.07;;
21999;SDS011;11164;48.818;2.322;2023-02-28T17:30:08;6.90;;;3.83;;
21999;SDS011;11164;48.818;2.322;2023-02-28T17:32:47;6.60;;;4.07;;